JM-0003 weather

Tulloch Airstrip
Bog Walk, Saint Catherine, Jamaica

Public forecast

Using degrees Celsius for public forecast. Weather courtesy of forecast.io.

Closest aviation weather report (METAR) to Tulloch Airstrip

Closest report is Norman Manley International Airport, 15.3 nm (28.3 km) SE. Retrieved 2019/12/12 05:00 UTC (48 minutes ago):

MKJP 120500Z 34006KT 9999 FEW022 27/22 Q1016

Closest aviation forecast (TAF) to Tulloch Airstrip

Closest forecast is Norman Manley International Airport, 15.3 nm (28.3 km) SE. Retrieved 2019-12-12 00:21 UTC (5 hours ago):

TAF MKJP 112315Z 1200/1224 35005KT 9999 FEW022 BECMG 1213/1215 14018KT TEMPO 1218/1224 FEW020 SCT022CB